sensor_id;sensor_type;location;lat;lon;timestamp;P1;durP1;ratioP1;P2;durP2;ratioP2
38463;SDS011;24243;51.956;5.902;2023-04-29T00:01:04;4.75;;;3.50;;
38463;SDS011;24243;51.956;5.902;2023-04-29T00:03:30;4.63;;;3.17;;
38463;SDS011;24243;51.956;5.902;2023-04-29T00:05:59;4.78;;;3.13;;
38463;SDS011;24243;51.956;5.902;2023-04-29T00:08:25;5.38;;;3.22;;
38463;SDS011;24243;51.956;5.902;2023-04-29T00:10:51;4.93;;;3.17;;
38463;SDS011;24243;51.956;5.902;2023-04-29T00:13:17;4.60;;;3.05;;
38463;SDS011;24243;51.956;5.902;2023-04-29T00:15:43;4.00;;;2.90;;
38463;SDS011;24243;51.956;5.902;2023-04-29T00:18:09;4.40;;;2.85;;
38463;SDS011;24243;51.956;5.902;2023-04-29T00:20:35;3.90;;;2.65;;
38463;SDS011;24243;51.956;5.902;2023-04-29T00:23:04;4.43;;;2.78;;
38463;SDS011;24243;51.956;5.902;2023-04-29T00:25:30;3.53;;;2.63;;
38463;SDS011;24243;51.956;5.902;2023-04-29T00:27:56;4.80;;;3.15;;
38463;SDS011;24243;51.956;5.902;2023-04-29T00:30:26;4.05;;;2.58;;
38463;SDS011;24243;51.956;5.902;2023-04-29T00:32:52;3.83;;;2.67;;
38463;SDS011;24243;51.956;5.902;2023-04-29T00:35:19;4.03;;;2.58;;
38463;SDS011;24243;51.956;5.902;2023-04-29T00:37:45;3.45;;;2.53;;
38463;SDS011;24243;51.956;5.902;2023-04-29T00:40:11;3.78;;;2.67;;
38463;SDS011;24243;51.956;5.902;2023-04-29T00:42:39;4.40;;;3.22;;
38463;SDS011;24243;51.956;5.902;2023-04-29T00:45:06;4.05;;;2.65;;
38463;SDS011;24243;51.956;5.902;2023-04-29T00:47:35;4.75;;;2.75;;
38463;SDS011;24243;51.956;5.902;2023-04-29T00:50:03;3.83;;;2.85;;
38463;SDS011;24243;51.956;5.902;2023-04-29T00:52:30;4.88;;;2.60;;
38463;SDS011;24243;51.956;5.902;2023-04-29T00:54:56;3.95;;;2.42;;
38463;SDS011;24243;51.956;5.902;2023-04-29T00:57:24;3.17;;;2.38;;
38463;SDS011;24243;51.956;5.902;2023-04-29T00:59:49;4.90;;;3.05;;
38463;SDS011;24243;51.956;5.902;2023-04-29T01:02:16;3.85;;;2.58;;
38463;SDS011;24243;51.956;5.902;2023-04-29T01:04:42;4.30;;;2.63;;
38463;SDS011;24243;51.956;5.902;2023-04-29T01:07:13;3.53;;;2.47;;
38463;SDS011;24243;51.956;5.902;2023-04-29T01:09:57;3.88;;;2.33;;
38463;SDS011;24243;51.956;5.902;2023-04-29T01:13:06;3.53;;;2.10;;
38463;SDS011;24243;51.956;5.902;2023-04-29T01:18:38;3.70;;;2.40;;
38463;SDS011;24243;51.956;5.902;2023-04-29T01:21:08;4.10;;;2.63;;
38463;SDS011;24243;51.956;5.902;2023-04-29T01:23:33;4.38;;;2.33;;
38463;SDS011;24243;51.956;5.902;2023-04-29T01:25:59;3.72;;;2.30;;
38463;SDS011;24243;51.956;5.902;2023-04-29T01:31:06;4.05;;;2.33;;
38463;SDS011;24243;51.956;5.902;2023-04-29T01:38:48;3.58;;;2.15;;
38463;SDS011;24243;51.956;5.902;2023-04-29T01:42:26;2.90;;;1.80;;
38463;SDS011;24243;51.956;5.902;2023-04-29T01:44:40;2.50;;;1.63;;
38463;SDS011;24243;51.956;5.902;2023-04-29T01:47:06;2.90;;;2.08;;
38463;SDS011;24243;51.956;5.902;2023-04-29T01:49:37;2.90;;;2.08;;
38463;SDS011;24243;51.956;5.902;2023-04-29T01:52:03;3.15;;;1.85;;
38463;SDS011;24243;51.956;5.902;2023-04-29T01:54:30;3.33;;;2.22;;
38463;SDS011;24243;51.956;5.902;2023-04-29T01:56:56;3.30;;;1.75;;
38463;SDS011;24243;51.956;5.902;2023-04-29T01:59:22;2.65;;;2.00;;
38463;SDS011;24243;51.956;5.902;2023-04-29T02:01:48;3.00;;;2.00;;
38463;SDS011;24243;51.956;5.902;2023-04-29T02:04:14;3.78;;;1.77;;
38463;SDS011;24243;51.956;5.902;2023-04-29T02:06:39;2.67;;;1.65;;
38463;SDS011;24243;51.956;5.902;2023-04-29T02:09:05;3.42;;;1.90;;
38463;SDS011;24243;51.956;5.902;2023-04-29T02:11:31;2.70;;;1.92;;
38463;SDS011;24243;51.956;5.902;2023-04-29T02:13:56;2.92;;;1.42;;
38463;SDS011;24243;51.956;5.902;2023-04-29T02:16:22;2.92;;;1.90;;
38463;SDS011;24243;51.956;5.902;2023-04-29T02:18:48;2.53;;;1.83;;
38463;SDS011;24243;51.956;5.902;2023-04-29T02:21:14;3.03;;;1.75;;
38463;SDS011;24243;51.956;5.902;2023-04-29T02:23:40;3.35;;;1.55;;
38463;SDS011;24243;51.956;5.902;2023-04-29T02:26:06;2.67;;;1.73;;
38463;SDS011;24243;51.956;5.902;2023-04-29T02:28:33;2.60;;;1.60;;
38463;SDS011;24243;51.956;5.902;2023-04-29T02:30:59;2.50;;;1.58;;
38463;SDS011;24243;51.956;5.902;2023-04-29T02:33:25;1.88;;;1.35;;
38463;SDS011;24243;51.956;5.902;2023-04-29T02:35:50;3.17;;;1.70;;
38463;SDS011;24243;51.956;5.902;2023-04-29T02:38:16;2.97;;;1.90;;
38463;SDS011;24243;51.956;5.902;2023-04-29T02:40:45;2.03;;;1.30;;
38463;SDS011;24243;51.956;5.902;2023-04-29T02:43:11;2.30;;;1.52;;
38463;SDS011;24243;51.956;5.902;2023-04-29T02:45:37;2.38;;;1.60;;
38463;SDS011;24243;51.956;5.902;2023-04-29T02:48:06;2.80;;;2.00;;
38463;SDS011;24243;51.956;5.902;2023-04-29T02:50:32;2.70;;;1.58;;
38463;SDS011;24243;51.956;5.902;2023-04-29T02:52:58;2.55;;;1.70;;
38463;SDS011;24243;51.956;5.902;2023-04-29T02:55:24;2.47;;;1.50;;
38463;SDS011;24243;51.956;5.902;2023-04-29T02:57:50;2.75;;;1.58;;
38463;SDS011;24243;51.956;5.902;2023-04-29T03:00:17;2.72;;;1.67;;
38463;SDS011;24243;51.956;5.902;2023-04-29T03:02:42;2.13;;;1.35;;
38463;SDS011;24243;51.956;5.902;2023-04-29T03:05:09;2.38;;;1.50;;
38463;SDS011;24243;51.956;5.902;2023-04-29T03:07:35;3.05;;;1.52;;
38463;SDS011;24243;51.956;5.902;2023-04-29T03:10:01;3.22;;;1.52;;
38463;SDS011;24243;51.956;5.902;2023-04-29T03:12:27;2.85;;;1.77;;
38463;SDS011;24243;51.956;5.902;2023-04-29T03:14:52;2.88;;;1.70;;
38463;SDS011;24243;51.956;5.902;2023-04-29T03:17:18;2.92;;;1.63;;
38463;SDS011;24243;51.956;5.902;2023-04-29T03:19:44;2.83;;;1.50;;
38463;SDS011;24243;51.956;5.902;2023-04-29T03:22:09;1.92;;;1.27;;
38463;SDS011;24243;51.956;5.902;2023-04-29T03:24:36;2.38;;;1.27;;
38463;SDS011;24243;51.956;5.902;2023-04-29T03:27:02;3.63;;;1.83;;
38463;SDS011;24243;51.956;5.902;2023-04-29T03:29:29;2.25;;;1.38;;
38463;SDS011;24243;51.956;5.902;2023-04-29T03:31:55;2.58;;;1.52;;
38463;SDS011;24243;51.956;5.902;2023-04-29T03:34:21;3.25;;;1.67;;
38463;SDS011;24243;51.956;5.902;2023-04-29T03:36:47;2.60;;;1.58;;
38463;SDS011;24243;51.956;5.902;2023-04-29T03:39:13;3.35;;;1.60;;
38463;SDS011;24243;51.956;5.902;2023-04-29T03:41:39;4.90;;;1.60;;
38463;SDS011;24243;51.956;5.902;2023-04-29T03:44:04;2.47;;;1.77;;
38463;SDS011;24243;51.956;5.902;2023-04-29T03:46:30;2.75;;;1.50;;
38463;SDS011;24243;51.956;5.902;2023-04-29T03:48:56;3.40;;;1.30;;
38463;SDS011;24243;51.956;5.902;2023-04-29T03:51:25;2.63;;;1.35;;
38463;SDS011;24243;51.956;5.902;2023-04-29T03:53:52;2.35;;;1.42;;
38463;SDS011;24243;51.956;5.902;2023-04-29T03:56:20;2.28;;;1.30;;
38463;SDS011;24243;51.956;5.902;2023-04-29T03:58:47;2.20;;;1.40;;
38463;SDS011;24243;51.956;5.902;2023-04-29T04:01:13;2.42;;;1.60;;
38463;SDS011;24243;51.956;5.902;2023-04-29T04:03:39;2.72;;;1.48;;
38463;SDS011;24243;51.956;5.902;2023-04-29T04:06:07;2.38;;;1.55;;
38463;SDS011;24243;51.956;5.902;2023-04-29T04:08:33;1.90;;;1.27;;
38463;SDS011;24243;51.956;5.902;2023-04-29T04:10:58;2.42;;;1.40;;
38463;SDS011;24243;51.956;5.902;2023-04-29T04:13:30;2.75;;;1.50;;
38463;SDS011;24243;51.956;5.902;2023-04-29T04:15:56;1.90;;;1.35;;
38463;SDS011;24243;51.956;5.902;2023-04-29T04:18:21;2.50;;;1.30;;
38463;SDS011;24243;51.956;5.902;2023-04-29T04:20:47;2.42;;;1.52;;
38463;SDS011;24243;51.956;5.902;2023-04-29T04:23:13;2.00;;;1.33;;
38463;SDS011;24243;51.956;5.902;2023-04-29T04:25:48;2.47;;;1.30;;
38463;SDS011;24243;51.956;5.902;2023-04-29T04:28:14;3.15;;;1.40;;
38463;SDS011;24243;51.956;5.902;2023-04-29T04:30:40;2.42;;;1.48;;
38463;SDS011;24243;51.956;5.902;2023-04-29T04:33:07;2.80;;;1.30;;
38463;SDS011;24243;51.956;5.902;2023-04-29T04:35:32;3.17;;;1.85;;
38463;SDS011;24243;51.956;5.902;2023-04-29T04:37:58;1.63;;;1.20;;
38463;SDS011;24243;51.956;5.902;2023-04-29T04:40:24;3.05;;;1.70;;
38463;SDS011;24243;51.956;5.902;2023-04-29T04:42:49;1.90;;;1.20;;
38463;SDS011;24243;51.956;5.902;2023-04-29T04:45:15;1.95;;;1.23;;
38463;SDS011;24243;51.956;5.902;2023-04-29T04:47:41;3.05;;;1.63;;
38463;SDS011;24243;51.956;5.902;2023-04-29T04:50:07;2.53;;;1.27;;
38463;SDS011;24243;51.956;5.902;2023-04-29T04:52:33;2.92;;;1.42;;
38463;SDS011;24243;51.956;5.902;2023-04-29T04:54:59;2.78;;;1.70;;
38463;SDS011;24243;51.956;5.902;2023-04-29T04:57:25;2.17;;;1.60;;
38463;SDS011;24243;51.956;5.902;2023-04-29T04:59:51;3.38;;;1.70;;
38463;SDS011;24243;51.956;5.902;2023-04-29T05:02:17;3.13;;;1.50;;
38463;SDS011;24243;51.956;5.902;2023-04-29T05:04:43;2.33;;;1.52;;
38463;SDS011;24243;51.956;5.902;2023-04-29T05:07:08;3.20;;;1.67;;
38463;SDS011;24243;51.956;5.902;2023-04-29T05:09:35;2.60;;;1.60;;
38463;SDS011;24243;51.956;5.902;2023-04-29T05:12:01;2.42;;;1.80;;
38463;SDS011;24243;51.956;5.902;2023-04-29T05:14:27;3.53;;;1.70;;
38463;SDS011;24243;51.956;5.902;2023-04-29T05:16:56;3.20;;;1.65;;
38463;SDS011;24243;51.956;5.902;2023-04-29T05:19:23;3.03;;;1.98;;
38463;SDS011;24243;51.956;5.902;2023-04-29T05:21:48;1.98;;;1.35;;
38463;SDS011;24243;51.956;5.902;2023-04-29T05:24:14;2.08;;;1.13;;
38463;SDS011;24243;51.956;5.902;2023-04-29T05:26:40;2.28;;;1.27;;
38463;SDS011;24243;51.956;5.902;2023-04-29T05:29:08;2.38;;;1.23;;
38463;SDS011;24243;51.956;5.902;2023-04-29T05:31:36;2.40;;;1.48;;
38463;SDS011;24243;51.956;5.902;2023-04-29T05:34:03;2.35;;;1.33;;
38463;SDS011;24243;51.956;5.902;2023-04-29T05:36:29;1.67;;;1.15;;
38463;SDS011;24243;51.956;5.902;2023-04-29T05:38:55;2.05;;;1.23;;
38463;SDS011;24243;51.956;5.902;2023-04-29T05:41:21;2.53;;;1.42;;
38463;SDS011;24243;51.956;5.902;2023-04-29T05:43:49;3.00;;;1.55;;
38463;SDS011;24243;51.956;5.902;2023-04-29T05:46:15;2.03;;;1.30;;
38463;SDS011;24243;51.956;5.902;2023-04-29T05:48:41;1.95;;;1.30;;
38463;SDS011;24243;51.956;5.902;2023-04-29T05:51:07;2.55;;;1.20;;
38463;SDS011;24243;51.956;5.902;2023-04-29T05:53:33;3.30;;;1.50;;
38463;SDS011;24243;51.956;5.902;2023-04-29T05:56:00;2.55;;;1.35;;
38463;SDS011;24243;51.956;5.902;2023-04-29T06:00:54;3.50;;;1.38;;
38463;SDS011;24243;51.956;5.902;2023-04-29T06:03:20;2.08;;;1.20;;
38463;SDS011;24243;51.956;5.902;2023-04-29T06:05:46;2.25;;;1.40;;
38463;SDS011;24243;51.956;5.902;2023-04-29T06:08:12;1.92;;;1.15;;
38463;SDS011;24243;51.956;5.902;2023-04-29T06:10:38;2.75;;;1.40;;
38463;SDS011;24243;51.956;5.902;2023-04-29T06:13:03;1.85;;;1.38;;
38463;SDS011;24243;51.956;5.902;2023-04-29T06:15:29;3.70;;;1.52;;
38463;SDS011;24243;51.956;5.902;2023-04-29T06:17:55;3.08;;;1.40;;
38463;SDS011;24243;51.956;5.902;2023-04-29T06:20:21;2.67;;;1.50;;
38463;SDS011;24243;51.956;5.902;2023-04-29T06:22:47;2.67;;;1.40;;
38463;SDS011;24243;51.956;5.902;2023-04-29T06:25:13;2.30;;;1.38;;
38463;SDS011;24243;51.956;5.902;2023-04-29T06:27:39;2.83;;;1.30;;
38463;SDS011;24243;51.956;5.902;2023-04-29T06:30:05;2.42;;;1.48;;
38463;SDS011;24243;51.956;5.902;2023-04-29T06:32:31;3.33;;;1.38;;
38463;SDS011;24243;51.956;5.902;2023-04-29T06:34:57;3.47;;;1.60;;
38463;SDS011;24243;51.956;5.902;2023-04-29T06:37:23;3.75;;;1.40;;
38463;SDS011;24243;51.956;5.902;2023-04-29T06:39:49;3.75;;;1.58;;
38463;SDS011;24243;51.956;5.902;2023-04-29T06:42:14;3.58;;;1.45;;
38463;SDS011;24243;51.956;5.902;2023-04-29T06:44:41;2.10;;;1.38;;
38463;SDS011;24243;51.956;5.902;2023-04-29T06:47:07;2.20;;;1.33;;
38463;SDS011;24243;51.956;5.902;2023-04-29T06:49:33;2.28;;;1.15;;
38463;SDS011;24243;51.956;5.902;2023-04-29T06:51:59;2.75;;;1.20;;
38463;SDS011;24243;51.956;5.902;2023-04-29T06:54:26;2.83;;;1.60;;
38463;SDS011;24243;51.956;5.902;2023-04-29T06:56:52;2.95;;;1.92;;
38463;SDS011;24243;51.956;5.902;2023-04-29T06:59:18;1.75;;;1.38;;
38463;SDS011;24243;51.956;5.902;2023-04-29T07:01:44;3.22;;;1.48;;
38463;SDS011;24243;51.956;5.902;2023-04-29T07:04:10;3.53;;;1.60;;
38463;SDS011;24243;51.956;5.902;2023-04-29T07:06:36;4.97;;;2.08;;
38463;SDS011;24243;51.956;5.902;2023-04-29T07:09:02;4.75;;;2.05;;
38463;SDS011;24243;51.956;5.902;2023-04-29T07:11:28;5.15;;;1.48;;
38463;SDS011;24243;51.956;5.902;2023-04-29T07:13:54;2.30;;;1.48;;
38463;SDS011;24243;51.956;5.902;2023-04-29T07:16:19;2.15;;;1.55;;
38463;SDS011;24243;51.956;5.902;2023-04-29T07:18:46;2.47;;;1.38;;
38463;SDS011;24243;51.956;5.902;2023-04-29T07:21:13;2.78;;;1.75;;
38463;SDS011;24243;51.956;5.902;2023-04-29T07:23:38;2.05;;;1.50;;
38463;SDS011;24243;51.956;5.902;2023-04-29T07:26:11;3.13;;;1.90;;
38463;SDS011;24243;51.956;5.902;2023-04-29T07:28:38;2.97;;;1.90;;
38463;SDS011;24243;51.956;5.902;2023-04-29T07:31:04;4.93;;;2.65;;
38463;SDS011;24243;51.956;5.902;2023-04-29T07:33:31;5.13;;;3.40;;
38463;SDS011;24243;51.956;5.902;2023-04-29T07:35:58;8.52;;;3.38;;
38463;SDS011;24243;51.956;5.902;2023-04-29T07:38:24;3.42;;;2.45;;
38463;SDS011;24243;51.956;5.902;2023-04-29T07:40:50;4.47;;;3.10;;
38463;SDS011;24243;51.956;5.902;2023-04-29T07:43:16;5.88;;;2.58;;
38463;SDS011;24243;51.956;5.902;2023-04-29T07:45:41;4.82;;;2.33;;
38463;SDS011;24243;51.956;5.902;2023-04-29T07:48:07;3.95;;;2.30;;
38463;SDS011;24243;51.956;5.902;2023-04-29T07:50:33;2.97;;;2.17;;
38463;SDS011;24243;51.956;5.902;2023-04-29T07:53:00;3.33;;;1.90;;
38463;SDS011;24243;51.956;5.902;2023-04-29T07:55:27;2.30;;;1.80;;
38463;SDS011;24243;51.956;5.902;2023-04-29T07:57:55;2.17;;;1.60;;
38463;SDS011;24243;51.956;5.902;2023-04-29T08:00:21;3.25;;;1.80;;
38463;SDS011;24243;51.956;5.902;2023-04-29T08:02:50;3.25;;;2.05;;
38463;SDS011;24243;51.956;5.902;2023-04-29T08:05:17;3.00;;;1.52;;
38463;SDS011;24243;51.956;5.902;2023-04-29T08:07:43;3.47;;;1.85;;
38463;SDS011;24243;51.956;5.902;2023-04-29T08:10:09;2.70;;;1.80;;
38463;SDS011;24243;51.956;5.902;2023-04-29T08:12:34;3.90;;;1.60;;
38463;SDS011;24243;51.956;5.902;2023-04-29T08:15:00;2.75;;;1.55;;
38463;SDS011;24243;51.956;5.902;2023-04-29T08:17:26;2.80;;;1.95;;
38463;SDS011;24243;51.956;5.902;2023-04-29T08:19:52;4.90;;;1.83;;
38463;SDS011;24243;51.956;5.902;2023-04-29T08:22:18;2.20;;;1.70;;
38463;SDS011;24243;51.956;5.902;2023-04-29T08:24:43;2.40;;;1.40;;
38463;SDS011;24243;51.956;5.902;2023-04-29T08:27:09;3.83;;;1.55;;
38463;SDS011;24243;51.956;5.902;2023-04-29T08:29:35;2.33;;;1.40;;
38463;SDS011;24243;51.956;5.902;2023-04-29T08:32:01;3.75;;;1.40;;
38463;SDS011;24243;51.956;5.902;2023-04-29T08:34:27;3.97;;;1.48;;
38463;SDS011;24243;51.956;5.902;2023-04-29T08:36:53;3.83;;;1.48;;
38463;SDS011;24243;51.956;5.902;2023-04-29T08:39:18;3.38;;;1.40;;
38463;SDS011;24243;51.956;5.902;2023-04-29T08:41:44;7.05;;;1.83;;
38463;SDS011;24243;51.956;5.902;2023-04-29T08:44:15;2.90;;;1.52;;
38463;SDS011;24243;51.956;5.902;2023-04-29T08:46:42;1.95;;;1.20;;
38463;SDS011;24243;51.956;5.902;2023-04-29T08:49:11;3.25;;;1.60;;
38463;SDS011;24243;51.956;5.902;2023-04-29T08:51:37;3.72;;;1.50;;
38463;SDS011;24243;51.956;5.902;2023-04-29T08:54:03;2.25;;;1.13;;
38463;SDS011;24243;51.956;5.902;2023-04-29T08:56:30;1.83;;;1.17;;
38463;SDS011;24243;51.956;5.902;2023-04-29T08:58:57;2.25;;;1.40;;
38463;SDS011;24243;51.956;5.902;2023-04-29T09:01:29;2.80;;;1.25;;
38463;SDS011;24243;51.956;5.902;2023-04-29T09:04:20;2.22;;;1.20;;
38463;SDS011;24243;51.956;5.902;2023-04-29T09:06:40;1.70;;;1.02;;
38463;SDS011;24243;51.956;5.902;2023-04-29T09:09:06;3.13;;;1.30;;
38463;SDS011;24243;51.956;5.902;2023-04-29T09:11:38;3.00;;;1.20;;
38463;SDS011;24243;51.956;5.902;2023-04-29T09:14:03;1.40;;;0.95;;
38463;SDS011;24243;51.956;5.902;2023-04-29T09:16:29;1.25;;;1.00;;
38463;SDS011;24243;51.956;5.902;2023-04-29T09:18:55;2.08;;;1.27;;
38463;SDS011;24243;51.956;5.902;2023-04-29T09:21:22;2.40;;;1.70;;
38463;SDS011;24243;51.956;5.902;2023-04-29T09:23:53;4.00;;;2.33;;
38463;SDS011;24243;51.956;5.902;2023-04-29T09:26:20;4.63;;;2.10;;
38463;SDS011;24243;51.956;5.902;2023-04-29T09:31:33;3.95;;;2.25;;
38463;SDS011;24243;51.956;5.902;2023-04-29T09:34:01;4.00;;;2.08;;
38463;SDS011;24243;51.956;5.902;2023-04-29T09:36:37;3.72;;;2.00;;
38463;SDS011;24243;51.956;5.902;2023-04-29T09:39:05;3.40;;;2.30;;
38463;SDS011;24243;51.956;5.902;2023-04-29T09:44:16;3.58;;;2.30;;
38463;SDS011;24243;51.956;5.902;2023-04-29T09:46:43;4.00;;;2.35;;
38463;SDS011;24243;51.956;5.902;2023-04-29T09:49:28;5.15;;;2.50;;
38463;SDS011;24243;51.956;5.902;2023-04-29T09:54:22;3.13;;;2.10;;
38463;SDS011;24243;51.956;5.902;2023-04-29T09:56:49;3.22;;;1.70;;
38463;SDS011;24243;51.956;5.902;2023-04-29T09:59:17;3.08;;;1.77;;
38463;SDS011;24243;51.956;5.902;2023-04-29T10:01:44;4.60;;;2.42;;
38463;SDS011;24243;51.956;5.902;2023-04-29T10:04:16;4.15;;;2.05;;
38463;SDS011;24243;51.956;5.902;2023-04-29T10:06:44;3.13;;;2.30;;
38463;SDS011;24243;51.956;5.902;2023-04-29T10:09:13;4.97;;;2.42;;
38463;SDS011;24243;51.956;5.902;2023-04-29T10:11:46;4.80;;;1.88;;
38463;SDS011;24243;51.956;5.902;2023-04-29T10:14:14;3.28;;;1.50;;
38463;SDS011;24243;51.956;5.902;2023-04-29T10:16:48;2.45;;;1.63;;
38463;SDS011;24243;51.956;5.902;2023-04-29T10:21:59;2.40;;;1.17;;
38463;SDS011;24243;51.956;5.902;2023-04-29T10:24:37;5.05;;;1.58;;
38463;SDS011;24243;51.956;5.902;2023-04-29T10:27:07;3.03;;;1.67;;
38463;SDS011;24243;51.956;5.902;2023-04-29T10:29:36;2.50;;;1.30;;
38463;SDS011;24243;51.956;5.902;2023-04-29T10:32:06;3.13;;;1.35;;
38463;SDS011;24243;51.956;5.902;2023-04-29T10:34:33;4.72;;;1.58;;
38463;SDS011;24243;51.956;5.902;2023-04-29T10:39:31;1.67;;;1.00;;
38463;SDS011;24243;51.956;5.902;2023-04-29T10:42:13;2.40;;;1.30;;
38463;SDS011;24243;51.956;5.902;2023-04-29T10:45:33;2.90;;;1.45;;
38463;SDS011;24243;51.956;5.902;2023-04-29T10:53:12;3.85;;;1.63;;
38463;SDS011;24243;51.956;5.902;2023-04-29T10:55:39;2.90;;;1.70;;
38463;SDS011;24243;51.956;5.902;2023-04-29T10:58:32;2.78;;;1.83;;
38463;SDS011;24243;51.956;5.902;2023-04-29T11:01:10;3.03;;;1.83;;
38463;SDS011;24243;51.956;5.902;2023-04-29T11:03:48;2.50;;;1.55;;
38463;SDS011;24243;51.956;5.902;2023-04-29T11:06:24;3.33;;;1.50;;
38463;SDS011;24243;51.956;5.902;2023-04-29T11:09:13;2.47;;;1.55;;
38463;SDS011;24243;51.956;5.902;2023-04-29T11:11:43;2.28;;;1.60;;
38463;SDS011;24243;51.956;5.902;2023-04-29T11:14:11;4.72;;;1.80;;
38463;SDS011;24243;51.956;5.902;2023-04-29T11:16:47;3.63;;;1.55;;
38463;SDS011;24243;51.956;5.902;2023-04-29T11:19:15;2.23;;;1.60;;
38463;SDS011;24243;51.956;5.902;2023-04-29T11:21:43;3.15;;;1.60;;
38463;SDS011;24243;51.956;5.902;2023-04-29T11:26:39;2.58;;;1.20;;
38463;SDS011;24243;51.956;5.902;2023-04-29T11:29:06;2.70;;;1.48;;
38463;SDS011;24243;51.956;5.902;2023-04-29T11:34:03;1.92;;;1.05;;
38463;SDS011;24243;51.956;5.902;2023-04-29T11:36:30;1.42;;;0.88;;
38463;SDS011;24243;51.956;5.902;2023-04-29T11:38:58;1.75;;;0.98;;
38463;SDS011;24243;51.956;5.902;2023-04-29T11:41:25;2.43;;;1.20;;
38463;SDS011;24243;51.956;5.902;2023-04-29T11:43:54;4.20;;;1.60;;
38463;SDS011;24243;51.956;5.902;2023-04-29T11:46:22;3.13;;;1.13;;
38463;SDS011;24243;51.956;5.902;2023-04-29T11:48:48;2.17;;;1.45;;
38463;SDS011;24243;51.956;5.902;2023-04-29T11:51:15;2.30;;;1.40;;
38463;SDS011;24243;51.956;5.902;2023-04-29T11:53:42;3.30;;;1.38;;
38463;SDS011;24243;51.956;5.902;2023-04-29T11:56:09;3.30;;;1.42;;
38463;SDS011;24243;51.956;5.902;2023-04-29T11:58:35;2.70;;;1.40;;
38463;SDS011;24243;51.956;5.902;2023-04-29T12:01:04;3.50;;;1.55;;
38463;SDS011;24243;51.956;5.902;2023-04-29T12:03:31;2.72;;;1.52;;
38463;SDS011;24243;51.956;5.902;2023-04-29T12:05:57;2.70;;;1.40;;
38463;SDS011;24243;51.956;5.902;2023-04-29T12:08:24;1.77;;;1.15;;
38463;SDS011;24243;51.956;5.902;2023-04-29T12:10:51;2.28;;;1.30;;
38463;SDS011;24243;51.956;5.902;2023-04-29T12:13:19;1.63;;;1.27;;
38463;SDS011;24243;51.956;5.902;2023-04-29T12:15:45;2.75;;;1.33;;
38463;SDS011;24243;51.956;5.902;2023-04-29T12:18:12;1.95;;;1.15;;
38463;SDS011;24243;51.956;5.902;2023-04-29T12:20:39;2.10;;;1.40;;
38463;SDS011;24243;51.956;5.902;2023-04-29T12:25:44;1.67;;;1.00;;
38463;SDS011;24243;51.956;5.902;2023-04-29T12:28:21;2.83;;;0.90;;
38463;SDS011;24243;51.956;5.902;2023-04-29T12:30:49;1.67;;;0.90;;
38463;SDS011;24243;51.956;5.902;2023-04-29T12:35:50;1.67;;;0.93;;
38463;SDS011;24243;51.956;5.902;2023-04-29T12:38:20;2.70;;;1.10;;
38463;SDS011;24243;51.956;5.902;2023-04-29T12:40:58;2.78;;;1.00;;
38463;SDS011;24243;51.956;5.902;2023-04-29T12:43:26;1.38;;;0.80;;
38463;SDS011;24243;51.956;5.902;2023-04-29T12:46:02;3.00;;;0.95;;
38463;SDS011;24243;51.956;5.902;2023-04-29T12:48:36;2.95;;;1.27;;
38463;SDS011;24243;51.956;5.902;2023-04-29T12:51:03;4.68;;;1.38;;
38463;SDS011;24243;51.956;5.902;2023-04-29T12:53:29;2.40;;;1.33;;
38463;SDS011;24243;51.956;5.902;2023-04-29T12:55:56;2.60;;;1.48;;
38463;SDS011;24243;51.956;5.902;2023-04-29T12:58:22;2.88;;;1.17;;
38463;SDS011;24243;51.956;5.902;2023-04-29T13:00:48;3.25;;;1.42;;
38463;SDS011;24243;51.956;5.902;2023-04-29T13:03:14;2.80;;;1.55;;
38463;SDS011;24243;51.956;5.902;2023-04-29T13:05:40;3.45;;;1.83;;
38463;SDS011;24243;51.956;5.902;2023-04-29T13:08:06;3.65;;;1.90;;
38463;SDS011;24243;51.956;5.902;2023-04-29T13:10:33;2.65;;;1.25;;
38463;SDS011;24243;51.956;5.902;2023-04-29T13:12:59;2.15;;;1.38;;
38463;SDS011;24243;51.956;5.902;2023-04-29T13:15:25;2.67;;;1.40;;
38463;SDS011;24243;51.956;5.902;2023-04-29T13:17:52;1.98;;;1.30;;
38463;SDS011;24243;51.956;5.902;2023-04-29T13:20:19;2.65;;;1.10;;
38463;SDS011;24243;51.956;5.902;2023-04-29T13:22:45;2.83;;;1.20;;
38463;SDS011;24243;51.956;5.902;2023-04-29T13:25:11;2.05;;;1.00;;
38463;SDS011;24243;51.956;5.902;2023-04-29T13:27:37;2.20;;;1.00;;
38463;SDS011;24243;51.956;5.902;2023-04-29T13:30:06;1.17;;;0.80;;
38463;SDS011;24243;51.956;5.902;2023-04-29T13:32:32;1.35;;;0.90;;
38463;SDS011;24243;51.956;5.902;2023-04-29T13:34:58;1.85;;;0.85;;
38463;SDS011;24243;51.956;5.902;2023-04-29T13:37:24;1.70;;;1.00;;
38463;SDS011;24243;51.956;5.902;2023-04-29T13:39:50;3.25;;;0.93;;
38463;SDS011;24243;51.956;5.902;2023-04-29T13:42:16;3.20;;;1.55;;
38463;SDS011;24243;51.956;5.902;2023-04-29T13:44:42;1.75;;;1.10;;
38463;SDS011;24243;51.956;5.902;2023-04-29T13:47:10;2.95;;;1.35;;
38463;SDS011;24243;51.956;5.902;2023-04-29T13:49:39;1.50;;;0.90;;
38463;SDS011;24243;51.956;5.902;2023-04-29T13:52:08;1.30;;;0.70;;
38463;SDS011;24243;51.956;5.902;2023-04-29T13:54:34;1.67;;;0.85;;
38463;SDS011;24243;51.956;5.902;2023-04-29T13:57:01;1.30;;;0.70;;
38463;SDS011;24243;51.956;5.902;2023-04-29T13:59:28;1.98;;;1.00;;
38463;SDS011;24243;51.956;5.902;2023-04-29T14:01:55;1.80;;;1.20;;
38463;SDS011;24243;51.956;5.902;2023-04-29T14:04:22;2.03;;;0.82;;
38463;SDS011;24243;51.956;5.902;2023-04-29T14:06:48;1.92;;;0.85;;
38463;SDS011;24243;51.956;5.902;2023-04-29T14:09:14;3.20;;;1.35;;
38463;SDS011;24243;51.956;5.902;2023-04-29T14:11:40;1.88;;;0.88;;
38463;SDS011;24243;51.956;5.902;2023-04-29T14:14:06;2.22;;;0.82;;
38463;SDS011;24243;51.956;5.902;2023-04-29T14:16:32;2.10;;;0.90;;
38463;SDS011;24243;51.956;5.902;2023-04-29T14:18:58;2.00;;;0.88;;
38463;SDS011;24243;51.956;5.902;2023-04-29T14:21:24;1.45;;;0.75;;
38463;SDS011;24243;51.956;5.902;2023-04-29T14:23:50;1.17;;;0.70;;
38463;SDS011;24243;51.956;5.902;2023-04-29T14:26:16;1.75;;;0.95;;
38463;SDS011;24243;51.956;5.902;2023-04-29T14:28:41;3.13;;;1.10;;
38463;SDS011;24243;51.956;5.902;2023-04-29T14:31:07;1.67;;;0.95;;
38463;SDS011;24243;51.956;5.902;2023-04-29T14:33:33;1.52;;;0.82;;
38463;SDS011;24243;51.956;5.902;2023-04-29T14:35:58;1.23;;;0.65;;
38463;SDS011;24243;51.956;5.902;2023-04-29T14:38:27;1.17;;;0.80;;
38463;SDS011;24243;51.956;5.902;2023-04-29T14:40:53;1.73;;;0.82;;
38463;SDS011;24243;51.956;5.902;2023-04-29T14:43:18;1.27;;;0.93;;
38463;SDS011;24243;51.956;5.902;2023-04-29T14:45:44;1.08;;;0.70;;
38463;SDS011;24243;51.956;5.902;2023-04-29T14:48:10;1.73;;;0.93;;
38463;SDS011;24243;51.956;5.902;2023-04-29T14:50:36;1.15;;;0.65;;
38463;SDS011;24243;51.956;5.902;2023-04-29T14:53:02;1.63;;;0.70;;
38463;SDS011;24243;51.956;5.902;2023-04-29T14:55:28;0.90;;;0.60;;
38463;SDS011;24243;51.956;5.902;2023-04-29T14:57:53;0.80;;;0.50;;
38463;SDS011;24243;51.956;5.902;2023-04-29T15:00:19;2.03;;;0.68;;
38463;SDS011;24243;51.956;5.902;2023-04-29T15:02:45;0.90;;;0.60;;
38463;SDS011;24243;51.956;5.902;2023-04-29T15:05:11;1.10;;;0.60;;
38463;SDS011;24243;51.956;5.902;2023-04-29T15:07:37;0.95;;;0.65;;
38463;SDS011;24243;51.956;5.902;2023-04-29T15:10:03;1.90;;;0.50;;
38463;SDS011;24243;51.956;5.902;2023-04-29T15:12:30;1.00;;;0.50;;
38463;SDS011;24243;51.956;5.902;2023-04-29T15:14:56;1.13;;;0.50;;
38463;SDS011;24243;51.956;5.902;2023-04-29T15:17:22;1.60;;;0.60;;
38463;SDS011;24243;51.956;5.902;2023-04-29T15:19:48;1.05;;;0.70;;
38463;SDS011;24243;51.956;5.902;2023-04-29T15:22:13;0.88;;;0.70;;
38463;SDS011;24243;51.956;5.902;2023-04-29T15:24:39;1.40;;;0.50;;
38463;SDS011;24243;51.956;5.902;2023-04-29T15:27:05;0.93;;;0.70;;
38463;SDS011;24243;51.956;5.902;2023-04-29T15:29:31;2.00;;;0.50;;
38463;SDS011;24243;51.956;5.902;2023-04-29T15:31:58;3.15;;;0.50;;